sensor_id;sensor_type;location;lat;lon;timestamp;P1;durP1;ratioP1;P2;durP2;ratioP2
19575;SDS011;41589;51.196;7.074;2023-06-05T00:00:42;1.40;;;0.90;;
19575;SDS011;41589;51.196;7.074;2023-06-05T00:05:43;0.73;;;0.73;;
19575;SDS011;41589;51.196;7.074;2023-06-05T00:10:44;0.93;;;0.90;;
19575;SDS011;41589;51.196;7.074;2023-06-05T00:15:55;0.90;;;0.90;;
19575;SDS011;41589;51.196;7.074;2023-06-05T00:21:02;0.93;;;0.93;;
19575;SDS011;41589;51.196;7.074;2023-06-05T00:26:04;0.70;;;0.70;;
19575;SDS011;41589;51.196;7.074;2023-06-05T00:31:04;0.90;;;0.70;;
19575;SDS011;41589;51.196;7.074;2023-06-05T00:36:06;0.90;;;0.90;;
19575;SDS011;41589;51.196;7.074;2023-06-05T00:41:07;1.13;;;0.90;;
19575;SDS011;41589;51.196;7.074;2023-06-05T00:46:10;1.47;;;1.17;;
19575;SDS011;41589;51.196;7.074;2023-06-05T00:51:19;1.77;;;1.20;;
19575;SDS011;41589;51.196;7.074;2023-06-05T00:56:20;1.60;;;1.23;;
19575;SDS011;41589;51.196;7.074;2023-06-05T01:01:25;2.03;;;1.67;;
19575;SDS011;41589;51.196;7.074;2023-06-05T01:06:31;0.80;;;0.80;;
19575;SDS011;41589;51.196;7.074;2023-06-05T01:17:17;1.70;;;0.90;;
19575;SDS011;41589;51.196;7.074;2023-06-05T01:22:25;0.90;;;0.90;;
19575;SDS011;41589;51.196;7.074;2023-06-05T01:27:37;2.10;;;1.20;;
19575;SDS011;41589;51.196;7.074;2023-06-05T01:38:47;1.10;;;1.10;;
19575;SDS011;41589;51.196;7.074;2023-06-05T01:43:53;1.13;;;1.00;;
19575;SDS011;41589;51.196;7.074;2023-06-05T01:48:58;1.20;;;1.20;;
19575;SDS011;41589;51.196;7.074;2023-06-05T01:54:02;1.30;;;1.20;;
19575;SDS011;41589;51.196;7.074;2023-06-05T01:59:40;1.10;;;1.10;;
19575;SDS011;41589;51.196;7.074;2023-06-05T02:04:56;1.13;;;1.10;;
19575;SDS011;41589;51.196;7.074;2023-06-05T02:10:00;0.90;;;0.90;;
19575;SDS011;41589;51.196;7.074;2023-06-05T02:15:03;1.03;;;1.03;;
19575;SDS011;41589;51.196;7.074;2023-06-05T02:20:08;1.00;;;1.00;;
19575;SDS011;41589;51.196;7.074;2023-06-05T02:25:10;0.90;;;0.90;;
19575;SDS011;41589;51.196;7.074;2023-06-05T02:30:16;1.00;;;1.00;;
19575;SDS011;41589;51.196;7.074;2023-06-05T02:35:22;1.27;;;1.17;;
19575;SDS011;41589;51.196;7.074;2023-06-05T02:40:38;1.80;;;1.40;;
19575;SDS011;41589;51.196;7.074;2023-06-05T02:45:47;1.53;;;1.30;;
19575;SDS011;41589;51.196;7.074;2023-06-05T02:51:06;1.30;;;1.20;;
19575;SDS011;41589;51.196;7.074;2023-06-05T02:56:07;1.70;;;1.30;;
19575;SDS011;41589;51.196;7.074;2023-06-05T03:01:07;1.57;;;1.40;;
19575;SDS011;41589;51.196;7.074;2023-06-05T03:06:16;1.73;;;1.50;;
19575;SDS011;41589;51.196;7.074;2023-06-05T03:11:20;1.73;;;1.53;;
19575;SDS011;41589;51.196;7.074;2023-06-05T03:16:24;3.23;;;2.37;;
19575;SDS011;41589;51.196;7.074;2023-06-05T03:21:35;1.50;;;1.20;;
19575;SDS011;41589;51.196;7.074;2023-06-05T03:26:37;2.20;;;1.37;;
19575;SDS011;41589;51.196;7.074;2023-06-05T03:32:04;1.53;;;1.43;;
19575;SDS011;41589;51.196;7.074;2023-06-05T03:37:08;1.50;;;1.40;;
19575;SDS011;41589;51.196;7.074;2023-06-05T03:42:18;1.30;;;1.20;;
19575;SDS011;41589;51.196;7.074;2023-06-05T03:47:29;2.80;;;1.40;;
19575;SDS011;41589;51.196;7.074;2023-06-05T03:58:23;1.40;;;1.27;;
19575;SDS011;41589;51.196;7.074;2023-06-05T04:03:27;1.40;;;1.30;;
19575;SDS011;41589;51.196;7.074;2023-06-05T04:08:35;1.50;;;1.40;;
19575;SDS011;41589;51.196;7.074;2023-06-05T04:19:30;1.50;;;1.40;;
19575;SDS011;41589;51.196;7.074;2023-06-05T04:24:51;1.97;;;1.43;;
19575;SDS011;41589;51.196;7.074;2023-06-05T04:30:22;1.40;;;1.30;;
19575;SDS011;41589;51.196;7.074;2023-06-05T04:41:14;2.30;;;1.30;;
19575;SDS011;41589;51.196;7.074;2023-06-05T04:46:24;1.63;;;1.53;;
19575;SDS011;41589;51.196;7.074;2023-06-05T04:51:31;1.53;;;1.43;;
19575;SDS011;41589;51.196;7.074;2023-06-05T04:57:02;1.40;;;1.30;;
19575;SDS011;41589;51.196;7.074;2023-06-05T05:02:03;2.10;;;1.10;;
19575;SDS011;41589;51.196;7.074;2023-06-05T05:07:08;1.33;;;1.23;;
19575;SDS011;41589;51.196;7.074;2023-06-05T05:12:19;1.30;;;1.20;;
19575;SDS011;41589;51.196;7.074;2023-06-05T05:17:30;1.23;;;1.13;;
19575;SDS011;41589;51.196;7.074;2023-06-05T05:22:39;3.57;;;1.50;;
19575;SDS011;41589;51.196;7.074;2023-06-05T05:27:39;1.40;;;1.30;;
19575;SDS011;41589;51.196;7.074;2023-06-05T05:32:43;1.10;;;1.10;;
19575;SDS011;41589;51.196;7.074;2023-06-05T05:37:45;1.03;;;1.03;;
19575;SDS011;41589;51.196;7.074;2023-06-05T05:42:46;1.00;;;1.00;;
19575;SDS011;41589;51.196;7.074;2023-06-05T05:47:46;1.83;;;1.20;;
19575;SDS011;41589;51.196;7.074;2023-06-05T05:52:46;1.40;;;1.30;;
19575;SDS011;41589;51.196;7.074;2023-06-05T05:57:47;1.60;;;1.30;;
19575;SDS011;41589;51.196;7.074;2023-06-05T06:02:53;1.00;;;1.00;;
19575;SDS011;41589;51.196;7.074;2023-06-05T06:07:56;1.47;;;1.37;;
19575;SDS011;41589;51.196;7.074;2023-06-05T06:13:05;1.13;;;1.03;;
19575;SDS011;41589;51.196;7.074;2023-06-05T06:18:06;1.10;;;1.00;;
19575;SDS011;41589;51.196;7.074;2023-06-05T06:23:22;1.33;;;1.03;;
19575;SDS011;41589;51.196;7.074;2023-06-05T06:28:23;1.10;;;1.00;;
19575;SDS011;41589;51.196;7.074;2023-06-05T06:33:26;0.80;;;0.80;;
19575;SDS011;41589;51.196;7.074;2023-06-05T06:38:38;0.90;;;0.90;;
19575;SDS011;41589;51.196;7.074;2023-06-05T06:43:39;1.27;;;1.13;;
19575;SDS011;41589;51.196;7.074;2023-06-05T06:48:42;1.23;;;1.13;;
19575;SDS011;41589;51.196;7.074;2023-06-05T06:53:53;1.00;;;0.80;;
19575;SDS011;41589;51.196;7.074;2023-06-05T06:58:53;1.23;;;0.90;;
19575;SDS011;41589;51.196;7.074;2023-06-05T07:03:56;0.80;;;0.80;;
19575;SDS011;41589;51.196;7.074;2023-06-05T07:09:01;0.70;;;0.70;;
19575;SDS011;41589;51.196;7.074;2023-06-05T07:14:05;1.20;;;0.90;;
19575;SDS011;41589;51.196;7.074;2023-06-05T07:19:06;0.80;;;0.80;;
19575;SDS011;41589;51.196;7.074;2023-06-05T07:24:09;1.07;;;0.90;;
19575;SDS011;41589;51.196;7.074;2023-06-05T07:29:12;0.87;;;0.87;;
19575;SDS011;41589;51.196;7.074;2023-06-05T07:34:16;0.80;;;0.80;;
19575;SDS011;41589;51.196;7.074;2023-06-05T07:39:34;2.03;;;1.03;;
19575;SDS011;41589;51.196;7.074;2023-06-05T07:44:36;0.80;;;0.80;;
19575;SDS011;41589;51.196;7.074;2023-06-05T07:49:47;0.83;;;0.73;;
19575;SDS011;41589;51.196;7.074;2023-06-05T07:55:15;0.97;;;0.87;;
19575;SDS011;41589;51.196;7.074;2023-06-05T08:00:17;0.83;;;0.83;;
19575;SDS011;41589;51.196;7.074;2023-06-05T08:05:19;1.63;;;1.03;;
19575;SDS011;41589;51.196;7.074;2023-06-05T08:10:20;0.77;;;0.70;;
19575;SDS011;41589;51.196;7.074;2023-06-05T08:15:23;1.43;;;0.80;;
19575;SDS011;41589;51.196;7.074;2023-06-05T08:20:31;1.27;;;0.90;;
19575;SDS011;41589;51.196;7.074;2023-06-05T08:25:31;0.77;;;0.73;;
19575;SDS011;41589;51.196;7.074;2023-06-05T08:30:31;0.80;;;0.80;;
19575;SDS011;41589;51.196;7.074;2023-06-05T08:35:32;0.77;;;0.70;;
19575;SDS011;41589;51.196;7.074;2023-06-05T08:40:33;0.80;;;0.80;;
19575;SDS011;41589;51.196;7.074;2023-06-05T08:45:33;0.77;;;0.77;;
19575;SDS011;41589;51.196;7.074;2023-06-05T08:50:43;1.00;;;0.80;;
19575;SDS011;41589;51.196;7.074;2023-06-05T08:55:44;1.90;;;1.00;;
19575;SDS011;41589;51.196;7.074;2023-06-05T09:00:46;0.80;;;0.80;;
19575;SDS011;41589;51.196;7.074;2023-06-05T09:05:51;0.93;;;0.80;;
19575;SDS011;41589;51.196;7.074;2023-06-05T09:16:35;1.00;;;1.00;;
19575;SDS011;41589;51.196;7.074;2023-06-05T09:21:46;1.10;;;0.90;;
19575;SDS011;41589;51.196;7.074;2023-06-05T09:31:57;0.83;;;0.83;;
19575;SDS011;41589;51.196;7.074;2023-06-05T09:37:31;0.90;;;0.90;;
19575;SDS011;41589;51.196;7.074;2023-06-05T09:42:38;0.73;;;0.73;;
19575;SDS011;41589;51.196;7.074;2023-06-05T09:47:38;0.93;;;0.93;;
19575;SDS011;41589;51.196;7.074;2023-06-05T09:52:39;0.50;;;0.50;;
19575;SDS011;41589;51.196;7.074;2023-06-05T09:57:41;0.80;;;0.80;;
19575;SDS011;41589;51.196;7.074;2023-06-05T10:02:42;1.17;;;0.90;;
19575;SDS011;41589;51.196;7.074;2023-06-05T10:07:45;1.23;;;0.87;;
19575;SDS011;41589;51.196;7.074;2023-06-05T10:12:52;0.80;;;0.80;;
19575;SDS011;41589;51.196;7.074;2023-06-05T10:17:56;2.10;;;0.80;;
19575;SDS011;41589;51.196;7.074;2023-06-05T10:23:00;0.97;;;0.83;;
19575;SDS011;41589;51.196;7.074;2023-06-05T10:28:49;0.80;;;0.80;;
19575;SDS011;41589;51.196;7.074;2023-06-05T10:39:13;0.90;;;0.90;;
19575;SDS011;41589;51.196;7.074;2023-06-05T10:44:14;0.83;;;0.80;;
19575;SDS011;41589;51.196;7.074;2023-06-05T10:49:17;0.80;;;0.80;;
19575;SDS011;41589;51.196;7.074;2023-06-05T11:10:18;1.80;;;1.00;;
19575;SDS011;41589;51.196;7.074;2023-06-05T11:25:29;0.80;;;0.80;;
19575;SDS011;41589;51.196;7.074;2023-06-05T11:30:31;0.70;;;0.70;;
19575;SDS011;41589;51.196;7.074;2023-06-05T11:35:44;1.27;;;0.77;;
19575;SDS011;41589;51.196;7.074;2023-06-05T11:40:46;0.80;;;0.80;;
19575;SDS011;41589;51.196;7.074;2023-06-05T11:45:56;0.90;;;0.70;;
19575;SDS011;41589;51.196;7.074;2023-06-05T11:50:58;1.23;;;0.87;;
19575;SDS011;41589;51.196;7.074;2023-06-05T11:56:00;0.97;;;0.70;;
19575;SDS011;41589;51.196;7.074;2023-06-05T12:01:11;1.00;;;0.90;;
19575;SDS011;41589;51.196;7.074;2023-06-05T12:06:22;1.27;;;0.70;;
19575;SDS011;41589;51.196;7.074;2023-06-05T12:11:26;1.67;;;0.83;;
19575;SDS011;41589;51.196;7.074;2023-06-05T12:16:43;1.47;;;0.80;;
19575;SDS011;41589;51.196;7.074;2023-06-05T12:21:44;0.70;;;0.70;;
19575;SDS011;41589;51.196;7.074;2023-06-05T12:31:53;0.70;;;0.70;;
19575;SDS011;41589;51.196;7.074;2023-06-05T12:36:54;1.10;;;0.80;;
19575;SDS011;41589;51.196;7.074;2023-06-05T12:41:55;1.40;;;0.70;;
19575;SDS011;41589;51.196;7.074;2023-06-05T12:46:56;1.37;;;1.07;;
19575;SDS011;41589;51.196;7.074;2023-06-05T12:52:00;0.70;;;0.70;;
19575;SDS011;41589;51.196;7.074;2023-06-05T12:57:02;0.80;;;0.80;;
19575;SDS011;41589;51.196;7.074;2023-06-05T13:02:05;0.77;;;0.70;;
19575;SDS011;41589;51.196;7.074;2023-06-05T13:07:06;1.10;;;1.00;;
19575;SDS011;41589;51.196;7.074;2023-06-05T13:12:07;0.80;;;0.80;;
19575;SDS011;41589;51.196;7.074;2023-06-05T13:17:08;1.10;;;1.00;;
19575;SDS011;41589;51.196;7.074;2023-06-05T13:22:08;0.90;;;0.90;;
19575;SDS011;41589;51.196;7.074;2023-06-05T13:27:08;0.70;;;0.70;;
19575;SDS011;41589;51.196;7.074;2023-06-05T13:32:09;0.70;;;0.70;;
19575;SDS011;41589;51.196;7.074;2023-06-05T13:37:09;0.60;;;0.60;;
19575;SDS011;41589;51.196;7.074;2023-06-05T13:42:10;0.70;;;0.70;;
19575;SDS011;41589;51.196;7.074;2023-06-05T13:47:11;0.73;;;0.70;;
19575;SDS011;41589;51.196;7.074;2023-06-05T13:52:12;0.87;;;0.70;;
19575;SDS011;41589;51.196;7.074;2023-06-05T13:57:12;1.10;;;1.00;;
19575;SDS011;41589;51.196;7.074;2023-06-05T14:02:13;1.23;;;0.70;;
19575;SDS011;41589;51.196;7.074;2023-06-05T14:07:13;0.70;;;0.70;;
19575;SDS011;41589;51.196;7.074;2023-06-05T14:12:14;0.60;;;0.60;;
19575;SDS011;41589;51.196;7.074;2023-06-05T14:17:14;0.60;;;0.60;;
19575;SDS011;41589;51.196;7.074;2023-06-05T14:22:15;1.00;;;0.90;;
19575;SDS011;41589;51.196;7.074;2023-06-05T14:27:15;0.73;;;0.73;;
19575;SDS011;41589;51.196;7.074;2023-06-05T14:32:16;0.67;;;0.67;;
19575;SDS011;41589;51.196;7.074;2023-06-05T14:37:17;1.23;;;0.90;;
19575;SDS011;41589;51.196;7.074;2023-06-05T14:42:17;3.40;;;0.90;;
19575;SDS011;41589;51.196;7.074;2023-06-05T14:47:18;0.83;;;0.80;;
19575;SDS011;41589;51.196;7.074;2023-06-05T14:52:18;0.70;;;0.70;;
19575;SDS011;41589;51.196;7.074;2023-06-05T14:57:21;0.70;;;0.70;;
19575;SDS011;41589;51.196;7.074;2023-06-05T15:02:21;1.93;;;0.90;;
19575;SDS011;41589;51.196;7.074;2023-06-05T15:07:22;0.80;;;0.80;;
19575;SDS011;41589;51.196;7.074;2023-06-05T15:12:23;0.60;;;0.60;;
19575;SDS011;41589;51.196;7.074;2023-06-05T15:17:23;0.80;;;0.80;;
19575;SDS011;41589;51.196;7.074;2023-06-05T15:22:24;0.90;;;0.90;;
19575;SDS011;41589;51.196;7.074;2023-06-05T15:27:27;0.70;;;0.70;;
19575;SDS011;41589;51.196;7.074;2023-06-05T15:32:28;0.60;;;0.60;;
19575;SDS011;41589;51.196;7.074;2023-06-05T15:37:31;0.70;;;0.70;;
19575;SDS011;41589;51.196;7.074;2023-06-05T15:42:37;0.80;;;0.80;;
19575;SDS011;41589;51.196;7.074;2023-06-05T15:47:38;0.60;;;0.60;;
19575;SDS011;41589;51.196;7.074;2023-06-05T15:52:40;0.80;;;0.80;;
19575;SDS011;41589;51.196;7.074;2023-06-05T15:57:40;0.70;;;0.70;;
19575;SDS011;41589;51.196;7.074;2023-06-05T16:02:41;0.70;;;0.70;;
19575;SDS011;41589;51.196;7.074;2023-06-05T16:07:42;0.73;;;0.73;;
19575;SDS011;41589;51.196;7.074;2023-06-05T16:12:42;0.83;;;0.73;;
19575;SDS011;41589;51.196;7.074;2023-06-05T16:17:43;0.87;;;0.70;;
19575;SDS011;41589;51.196;7.074;2023-06-05T16:22:46;0.63;;;0.60;;
19575;SDS011;41589;51.196;7.074;2023-06-05T16:27:47;0.60;;;0.60;;
19575;SDS011;41589;51.196;7.074;2023-06-05T16:32:47;0.60;;;0.60;;
19575;SDS011;41589;51.196;7.074;2023-06-05T16:37:48;0.80;;;0.80;;
19575;SDS011;41589;51.196;7.074;2023-06-05T16:42:49;0.60;;;0.60;;
19575;SDS011;41589;51.196;7.074;2023-06-05T16:47:49;0.80;;;0.80;;
19575;SDS011;41589;51.196;7.074;2023-06-05T16:52:50;0.67;;;0.67;;
19575;SDS011;41589;51.196;7.074;2023-06-05T16:57:50;0.60;;;0.60;;
19575;SDS011;41589;51.196;7.074;2023-06-05T17:02:51;0.80;;;0.80;;
19575;SDS011;41589;51.196;7.074;2023-06-05T17:07:52;0.60;;;0.60;;
19575;SDS011;41589;51.196;7.074;2023-06-05T17:12:55;0.73;;;0.70;;
19575;SDS011;41589;51.196;7.074;2023-06-05T17:17:56;0.80;;;0.80;;
19575;SDS011;41589;51.196;7.074;2023-06-05T17:22:57;0.83;;;0.83;;
19575;SDS011;41589;51.196;7.074;2023-06-05T17:27:57;0.80;;;0.80;;
19575;SDS011;41589;51.196;7.074;2023-06-05T17:32:57;0.70;;;0.70;;
19575;SDS011;41589;51.196;7.074;2023-06-05T17:37:58;0.90;;;0.90;;
19575;SDS011;41589;51.196;7.074;2023-06-05T17:43:01;1.20;;;0.87;;
19575;SDS011;41589;51.196;7.074;2023-06-05T17:48:04;0.80;;;0.80;;
19575;SDS011;41589;51.196;7.074;2023-06-05T17:53:05;0.90;;;0.90;;
19575;SDS011;41589;51.196;7.074;2023-06-05T17:58:08;1.00;;;0.93;;
19575;SDS011;41589;51.196;7.074;2023-06-05T18:03:09;0.93;;;0.93;;
19575;SDS011;41589;51.196;7.074;2023-06-05T18:08:10;0.90;;;0.90;;
19575;SDS011;41589;51.196;7.074;2023-06-05T18:13:12;1.00;;;1.00;;
19575;SDS011;41589;51.196;7.074;2023-06-05T18:18:13;0.80;;;0.80;;
19575;SDS011;41589;51.196;7.074;2023-06-05T18:23:15;1.77;;;0.90;;
19575;SDS011;41589;51.196;7.074;2023-06-05T18:28:16;0.60;;;0.60;;
19575;SDS011;41589;51.196;7.074;2023-06-05T18:33:25;0.90;;;0.90;;
19575;SDS011;41589;51.196;7.074;2023-06-05T18:38:27;0.70;;;0.70;;
19575;SDS011;41589;51.196;7.074;2023-06-05T18:43:28;0.80;;;0.80;;
19575;SDS011;41589;51.196;7.074;2023-06-05T18:48:30;0.80;;;0.80;;
19575;SDS011;41589;51.196;7.074;2023-06-05T18:53:37;0.90;;;0.90;;
19575;SDS011;41589;51.196;7.074;2023-06-05T18:58:52;1.00;;;0.80;;
19575;SDS011;41589;51.196;7.074;2023-06-05T19:03:53;1.00;;;0.80;;
19575;SDS011;41589;51.196;7.074;2023-06-05T19:08:53;0.80;;;0.80;;
19575;SDS011;41589;51.196;7.074;2023-06-05T19:13:54;0.80;;;0.80;;
19575;SDS011;41589;51.196;7.074;2023-06-05T19:18:54;1.00;;;0.80;;
19575;SDS011;41589;51.196;7.074;2023-06-05T19:23:55;0.80;;;0.80;;
19575;SDS011;41589;51.196;7.074;2023-06-05T19:28:58;1.10;;;1.00;;
19575;SDS011;41589;51.196;7.074;2023-06-05T19:33:58;0.70;;;0.70;;
19575;SDS011;41589;51.196;7.074;2023-06-05T19:38:59;0.80;;;0.80;;
19575;SDS011;41589;51.196;7.074;2023-06-05T19:44:02;1.37;;;1.00;;
19575;SDS011;41589;51.196;7.074;2023-06-05T19:49:03;1.50;;;1.00;;
19575;SDS011;41589;51.196;7.074;2023-06-05T19:54:04;1.03;;;0.80;;
19575;SDS011;41589;51.196;7.074;2023-06-05T19:59:05;0.90;;;0.73;;
19575;SDS011;41589;51.196;7.074;2023-06-05T20:04:05;2.20;;;0.80;;
19575;SDS011;41589;51.196;7.074;2023-06-05T20:09:06;0.70;;;0.70;;
19575;SDS011;41589;51.196;7.074;2023-06-05T20:14:06;0.83;;;0.83;;
19575;SDS011;41589;51.196;7.074;2023-06-05T20:19:06;1.03;;;1.03;;
19575;SDS011;41589;51.196;7.074;2023-06-05T20:24:07;2.27;;;0.90;;
19575;SDS011;41589;51.196;7.074;2023-06-05T20:29:08;1.00;;;1.00;;
19575;SDS011;41589;51.196;7.074;2023-06-05T20:34:09;0.70;;;0.70;;
19575;SDS011;41589;51.196;7.074;2023-06-05T20:39:10;0.80;;;0.80;;
19575;SDS011;41589;51.196;7.074;2023-06-05T20:44:18;0.80;;;0.80;;
19575;SDS011;41589;51.196;7.074;2023-06-05T20:49:24;0.77;;;0.77;;
19575;SDS011;41589;51.196;7.074;2023-06-05T20:54:24;0.80;;;0.80;;
19575;SDS011;41589;51.196;7.074;2023-06-05T20:59:25;0.70;;;0.70;;
19575;SDS011;41589;51.196;7.074;2023-06-05T21:04:25;1.07;;;0.90;;
19575;SDS011;41589;51.196;7.074;2023-06-05T21:09:25;1.80;;;0.90;;
19575;SDS011;41589;51.196;7.074;2023-06-05T21:14:26;1.20;;;0.93;;
19575;SDS011;41589;51.196;7.074;2023-06-05T21:19:26;0.80;;;0.80;;
19575;SDS011;41589;51.196;7.074;2023-06-05T21:24:26;0.80;;;0.80;;
19575;SDS011;41589;51.196;7.074;2023-06-05T21:29:27;2.20;;;1.10;;
19575;SDS011;41589;51.196;7.074;2023-06-05T21:34:29;2.10;;;1.50;;
19575;SDS011;41589;51.196;7.074;2023-06-05T21:39:29;1.67;;;1.03;;
19575;SDS011;41589;51.196;7.074;2023-06-05T21:44:30;2.23;;;1.07;;
19575;SDS011;41589;51.196;7.074;2023-06-05T21:49:30;0.70;;;0.70;;
19575;SDS011;41589;51.196;7.074;2023-06-05T21:54:31;1.10;;;1.00;;
19575;SDS011;41589;51.196;7.074;2023-06-05T21:59:34;1.20;;;1.10;;
19575;SDS011;41589;51.196;7.074;2023-06-05T22:04:37;1.13;;;1.03;;
19575;SDS011;41589;51.196;7.074;2023-06-05T22:09:39;0.70;;;0.70;;
19575;SDS011;41589;51.196;7.074;2023-06-05T22:14:40;0.90;;;0.90;;
19575;SDS011;41589;51.196;7.074;2023-06-05T22:19:43;1.83;;;0.90;;
19575;SDS011;41589;51.196;7.074;2023-06-05T22:24:44;1.27;;;0.90;;
19575;SDS011;41589;51.196;7.074;2023-06-05T22:29:44;0.80;;;0.80;;
19575;SDS011;41589;51.196;7.074;2023-06-05T22:34:48;1.07;;;1.00;;
19575;SDS011;41589;51.196;7.074;2023-06-05T22:39:54;0.73;;;0.73;;
19575;SDS011;41589;51.196;7.074;2023-06-05T22:44:54;0.90;;;0.83;;
19575;SDS011;41589;51.196;7.074;2023-06-05T22:49:55;1.10;;;0.80;;
19575;SDS011;41589;51.196;7.074;2023-06-05T22:54:55;0.70;;;0.70;;
19575;SDS011;41589;51.196;7.074;2023-06-05T22:59:56;1.07;;;1.00;;
19575;SDS011;41589;51.196;7.074;2023-06-05T23:05:03;0.90;;;0.90;;
19575;SDS011;41589;51.196;7.074;2023-06-05T23:10:04;1.10;;;1.10;;
19575;SDS011;41589;51.196;7.074;2023-06-05T23:15:05;0.90;;;0.90;;
19575;SDS011;41589;51.196;7.074;2023-06-05T23:20:06;1.20;;;1.10;;
19575;SDS011;41589;51.196;7.074;2023-06-05T23:25:07;1.93;;;1.30;;
19575;SDS011;41589;51.196;7.074;2023-06-05T23:30:08;1.23;;;1.13;;
19575;SDS011;41589;51.196;7.074;2023-06-05T23:35:08;2.13;;;1.00;;
19575;SDS011;41589;51.196;7.074;2023-06-05T23:40:09;0.90;;;0.90;;
19575;SDS011;41589;51.196;7.074;2023-06-05T23:45:12;0.93;;;0.93;;
19575;SDS011;41589;51.196;7.074;2023-06-05T23:50:13;1.10;;;1.00;;
19575;SDS011;41589;51.196;7.074;2023-06-05T23:55:14;1.60;;;1.03;;
